Time;durP1;ratioP1;P1;durP2;ratioP2;P2;SDS_P1;SDS_P2;PMS_P1;PMS_P2;Temp;Humidity;BMP_temperature;BMP_pressure;BME280_temperature;BME280_humidity;BME280_pressure;Samples;Min_cycle;Max_cycle;Signal;HPM_P1;HPM_P2
2022/06/14 00:00:53;;;;;;;7.93;2.72;;;13.00;99.90;;;;;;5093383;28;20077;-78
2022/06/14 00:02:22;;;;;;;6.55;2.45;;;13.00;99.90;;;;;;5092068;28;20403;-78
2022/06/14 00:04:47;;;;;;;7.78;2.65;;;13.00;99.90;;;;;;5093631;28;20103;-78
2022/06/14 00:07:13;;;;;;;7.18;3.08;;;13.00;99.90;;;;;;5095660;28;20188;-78
2022/06/14 00:09:38;;;;;;;9.80;2.63;;;12.90;99.90;;;;;;5095777;28;20071;-79
2022/06/14 00:12:05;;;;;;;7.05;2.92;;;12.90;99.90;;;;;;5095035;28;20028;-79
2022/06/14 00:14:36;;;;;;;11.52;3.13;;;12.90;99.90;;;;;;5095381;28;20081;-79
2022/06/14 00:17:02;;;;;;;10.63;3.35;;;12.90;99.90;;;;;;5096022;28;20059;-79
2022/06/14 00:19:28;;;;;;;3.50;2.53;;;12.90;99.90;;;;;;5095046;28;20048;-79
2022/06/14 00:21:53;;;;;;;6.70;3.28;;;12.90;99.90;;;;;;5095382;28;20040;-79
2022/06/14 00:24:19;;;;;;;5.05;3.03;;;12.80;99.90;;;;;;5095585;28;20099;-79
2022/06/14 00:26:44;;;;;;;7.53;3.22;;;12.90;99.90;;;;;;5095150;28;20023;-78
2022/06/14 00:29:10;;;;;;;7.63;3.20;;;12.80;99.90;;;;;;5077060;28;20016;-79
2022/06/14 00:31:36;;;;;;;7.55;3.55;;;12.80;99.90;;;;;;5095371;28;20105;-78
2022/06/14 00:34:02;;;;;;;6.43;2.95;;;12.80;99.90;;;;;;5095185;28;20471;-79
2022/06/14 00:36:30;;;;;;;6.68;3.35;;;12.70;99.90;;;;;;5095045;28;20024;-79
2022/06/14 00:38:59;;;;;;;5.75;3.17;;;12.70;99.90;;;;;;5095002;28;20024;-79
2022/06/14 00:41:34;;;;;;;6.95;2.83;;;13.20;99.90;;;;;;5094946;28;20054;-79
2022/06/14 00:44:01;;;;;;;9.63;3.08;;;12.70;99.90;;;;;;5095173;28;20034;-80
2022/06/14 00:46:38;;;;;;;7.97;2.92;;;12.60;99.90;;;;;;5094865;28;20058;-80
2022/06/14 00:49:11;;;;;;;5.72;2.85;;;12.60;99.90;;;;;;5098889;28;20028;-79
2022/06/14 00:52:01;;;;;;;8.85;3.05;;;12.60;99.90;;;;;;5095325;28;20024;-77
2022/06/14 00:54:39;;;;;;;5.43;2.85;;;12.60;99.90;;;;;;5093581;28;20123;-79
2022/06/14 00:57:19;;;;;;;5.80;3.00;;;12.50;99.90;;;;;;5095601;28;20127;-80
2022/06/14 00:59:50;;;;;;;4.43;2.50;;;12.50;99.90;;;;;;5095331;28;20082;-79
2022/06/14 01:02:31;;;;;;;;;;;12.50;99.90;;;;;;5095153;28;20056;-80
2022/06/14 01:05:01;;;;;;;5.22;2.70;;;12.50;99.90;;;;;;5095005;28;19908;-79
2022/06/14 01:07:40;;;;;;;4.18;2.63;;;12.50;99.90;;;;;;5094309;28;20410;-79
2022/06/14 01:10:14;;;;;;;10.50;3.42;;;12.50;99.90;;;;;;5094409;28;20039;-78
2022/06/14 01:12:44;;;;;;;7.00;2.65;;;12.40;99.90;;;;;;5094837;28;20028;-79
2022/06/14 01:15:21;;;;;;;6.97;3.17;;;12.30;99.90;;;;;;5093707;28;20111;-79
2022/06/14 01:18:15;;;;;;;5.82;2.90;;;12.30;99.90;;;;;;5093923;28;20480;-79
2022/06/14 01:20:41;;;;;;;6.97;2.83;;;12.30;99.90;;;;;;5089350;28;20024;-79
2022/06/14 01:23:09;;;;;;;6.20;2.90;;;12.30;99.90;;;;;;5094020;28;20039;-79
2022/06/14 01:25:41;;;;;;;8.07;2.70;;;12.30;99.90;;;;;;5093957;28;20024;-78
2022/06/14 01:28:09;;;;;;;5.78;2.67;;;12.20;99.90;;;;;;5093855;28;20076;-79
2022/06/14 01:30:42;;;;;;;8.80;2.47;;;12.20;99.90;;;;;;5094267;28;20032;-80
2022/06/14 01:33:23;;;;;;;6.88;2.42;;;12.20;99.90;;;;;;5094122;28;20027;-79
2022/06/14 01:35:55;;;;;;;5.97;2.60;;;12.20;99.90;;;;;;5093623;28;20028;-78
2022/06/14 01:38:23;;;;;;;5.70;2.53;;;12.20;99.90;;;;;;5094076;28;20089;-78
2022/06/14 01:41:12;;;;;;;9.85;3.08;;;12.20;99.90;;;;;;5094499;28;20017;-78
2022/06/14 01:43:58;;;;;;;4.30;2.92;;;12.20;99.90;;;;;;5093779;28;20032;-78
2022/06/14 01:46:25;;;;;;;5.28;2.90;;;12.10;99.90;;;;;;5093896;28;20464;-78
2022/06/14 01:52:30;;;;;;;4.60;2.50;;;12.10;99.90;;;;;;5093673;28;20084;-79
2022/06/14 01:55:11;;;;;;;3.65;1.95;;;12.10;99.90;;;;;;5093951;28;20034;-79
2022/06/14 01:58:05;;;;;;;5.07;2.70;;;12.10;99.90;;;;;;5095044;28;20020;-78
2022/06/14 02:00:36;;;;;;;3.83;2.15;;;12.00;99.90;;;;;;5096912;28;20392;-78
2022/06/14 02:06:27;;;;;;;7.38;2.85;;;12.00;99.90;;;;;;5013572;28;20156;-78
2022/06/14 02:09:00;;;;;;;4.88;2.67;;;11.90;99.90;;;;;;5079983;28;20055;-79
2022/06/14 02:11:32;;;;;;;6.25;2.22;;;12.00;99.90;;;;;;5093125;28;20028;-79
2022/06/14 02:14:31;;;;;;;5.30;2.15;;;12.00;99.90;;;;;;5093471;28;20020;-78
2022/06/14 02:17:31;;;;;;;4.25;2.10;;;12.00;99.90;;;;;;5093901;28;20032;-78
2022/06/14 02:20:03;;;;;;;4.72;2.10;;;11.90;99.90;;;;;;5093367;28;20039;-78
2022/06/14 02:22:46;;;;;;;4.63;2.20;;;11.90;99.90;;;;;;5093221;28;20024;-78
2022/06/14 02:25:14;;;;;;;6.65;2.40;;;11.80;99.90;;;;;;5092799;28;20020;-78
2022/06/14 02:27:58;;;;;;;7.40;2.95;;;11.80;99.90;;;;;;5092572;28;20460;-78
2022/06/14 02:30:29;;;;;;;4.13;2.40;;;11.80;99.90;;;;;;5093334;28;20170;-78
2022/06/14 02:33:17;;;;;;;7.25;3.25;;;11.80;99.90;;;;;;5092550;28;20024;-78
2022/06/14 02:35:51;;;;;;;5.60;2.72;;;11.70;99.90;;;;;;5093051;28;20036;-79
2022/06/14 02:38:25;;;;;;;9.73;3.25;;;11.70;99.90;;;;;;5092883;28;20028;-79
2022/06/14 02:41:04;;;;;;;6.50;2.55;;;11.70;99.90;;;;;;5092940;28;20120;-78
2022/06/14 02:43:56;;;;;;;4.35;2.72;;;11.70;99.90;;;;;;5092904;28;20066;-79
2022/06/14 02:46:48;;;;;;;7.93;3.03;;;11.70;99.90;;;;;;5091686;28;20036;-79
2022/06/14 02:49:33;;;;;;;4.68;2.45;;;11.70;99.90;;;;;;5092720;28;20035;-80
2022/06/14 02:52:05;;;;;;;6.93;2.92;;;11.60;99.90;;;;;;5092924;28;20043;-79
2022/06/14 02:54:37;;;;;;;5.28;2.35;;;11.60;99.90;;;;;;5092481;28;20020;-79
2022/06/14 02:57:13;;;;;;;5.82;2.60;;;11.60;99.90;;;;;;5093040;28;20089;-79
2022/06/14 02:59:46;;;;;;;4.15;2.85;;;11.60;99.90;;;;;;5092659;28;20069;-79
2022/06/14 03:02:21;;;;;;;6.35;2.83;;;11.60;99.90;;;;;;5092494;28;20047;-78
2022/06/14 03:05:08;;;;;;;7.47;3.10;;;11.60;99.90;;;;;;5093433;28;20107;-80
2022/06/14 03:08:07;;;;;;;6.20;2.97;;;11.60;99.90;;;;;;5093027;28;20391;-80
2022/06/14 03:10:39;;;;;;;6.45;3.00;;;11.50;99.90;;;;;;5094766;28;20452;-79
2022/06/14 03:13:17;;;;;;;5.15;2.80;;;11.50;99.90;;;;;;5093043;28;20098;-80
2022/06/14 03:15:52;;;;;;;2.67;2.40;;;11.50;99.90;;;;;;5092557;28;20074;-79
2022/06/14 03:18:42;;;;;;;6.97;2.63;;;11.50;99.90;;;;;;5092746;28;20091;-79
2022/06/14 03:21:20;;;;;;;3.92;2.40;;;11.50;99.90;;;;;;5091935;28;20024;-79
2022/06/14 03:24:03;;;;;;;4.05;2.70;;;11.40;99.90;;;;;;5092716;28;20028;-79
2022/06/14 03:26:39;;;;;;;6.57;3.00;;;11.40;99.90;;;;;;5092642;28;20020;-78
2022/06/14 03:29:20;;;;;;;5.35;2.70;;;11.40;99.90;;;;;;5092095;28;20081;-79
2022/06/14 03:31:57;;;;;;;6.10;3.30;;;11.40;99.90;;;;;;5092706;28;20032;-79
2022/06/14 03:34:26;;;;;;;4.15;2.65;;;11.40;99.90;;;;;;5092742;28;20111;-79
2022/06/14 03:36:53;;;;;;;6.13;3.45;;;11.50;99.90;;;;;;5091709;28;20484;-79
2022/06/14 03:39:23;;;;;;;4.53;3.08;;;11.40;99.90;;;;;;5093891;28;20078;-80
2022/06/14 03:41:51;;;;;;;4.03;2.80;;;11.40;99.90;;;;;;5095919;28;20044;-79
2022/06/14 03:44:19;;;;;;;4.28;2.67;;;11.40;99.90;;;;;;5096135;28;20510;-79
2022/06/14 03:47:08;;;;;;;4.55;2.75;;;11.40;99.90;;;;;;5096651;28;20387;-77
2022/06/14 03:49:35;;;;;;;3.50;2.88;;;11.40;99.90;;;;;;5096220;28;20020;-79
2022/06/14 03:52:08;;;;;;;6.30;2.97;;;11.40;99.90;;;;;;5096282;28;20055;-79
2022/06/14 03:54:52;;;;;;;8.60;3.70;;;11.40;99.90;;;;;;5104004;28;20076;-78
2022/06/14 03:57:33;;;;;;;3.97;3.30;;;11.50;99.90;;;;;;5095962;28;20024;-78
2022/06/14 04:00:13;;;;;;;7.72;4.22;;;11.50;99.90;;;;;;5096491;28;20371;-78
2022/06/14 04:03:04;;;;;;;3.70;2.75;;;11.50;99.90;;;;;;5096975;28;20044;-78
2022/06/14 04:05:32;;;;;;;4.15;2.78;;;11.60;99.90;;;;;;5101487;28;20107;-79
2022/06/14 04:08:18;;;;;;;2.92;2.30;;;11.60;99.90;;;;;;5100336;28;20126;-78
2022/06/14 04:10:50;;;;;;;2.30;2.00;;;11.60;99.90;;;;;;5103081;28;20036;-80
2022/06/14 04:13:25;;;;;;;3.83;2.22;;;11.60;99.90;;;;;;5095834;28;20028;-79
2022/06/14 04:16:13;;;;;;;3.42;2.20;;;11.60;99.90;;;;;;5095811;28;20495;-79
2022/06/14 04:18:48;;;;;;;2.92;2.63;;;11.60;99.90;;;;;;5094908;28;20502;-80
2022/06/14 04:21:33;;;;;;;2.78;2.45;;;11.60;99.90;;;;;;5095735;28;20020;-80
2022/06/14 04:24:37;;;;;;;3.55;2.53;;;11.60;99.90;;;;;;5095490;28;20051;-80
2022/06/14 04:27:11;;;;;;;3.90;2.50;;;11.60;99.90;;;;;;5095921;28;20050;-81
2022/06/14 04:30:01;;;;;;;2.47;2.28;;;11.60;99.90;;;;;;5095854;28;20028;-79
2022/06/14 04:32:53;;;;;;;4.03;2.50;;;11.60;99.90;;;;;;5095202;28;20031;-79
2022/06/14 04:35:28;;;;;;;4.53;3.72;;;11.70;99.90;;;;;;5095563;28;20081;-79
2022/06/14 04:38:08;;;;;;;6.70;2.80;;;11.70;99.90;;;;;;5094934;28;20099;-79
2022/06/14 04:40:40;;;;;;;5.10;3.25;;;11.80;99.90;;;;;;5095165;28;20054;-79
2022/06/14 04:43:16;;;;;;;5.30;3.70;;;11.90;99.90;;;;;;5095429;28;20044;-79
2022/06/14 04:46:01;;;;;;;12.73;3.35;;;11.90;99.90;;;;;;5095005;28;20103;-78
2022/06/14 04:48:48;;;;;;;6.95;3.15;;;11.90;99.90;;;;;;5095012;28;20024;-80
2022/06/14 04:51:36;;;;;;;5.43;3.47;;;12.00;99.90;;;;;;5094567;28;20028;-78
2022/06/14 04:54:12;;;;;;;7.13;3.38;;;12.10;99.90;;;;;;5094493;28;20031;-78
2022/06/14 04:57:03;;;;;;;5.20;3.13;;;12.20;99.90;;;;;;5094901;28;20024;-79
2022/06/14 04:59:29;;;;;;;;;;;12.20;99.90;;;;;;5094082;28;20024;-80
2022/06/14 05:02:22;;;;;;;4.45;3.08;;;12.30;99.90;;;;;;5094515;28;19923;-80
2022/06/14 05:04:54;;;;;;;6.53;3.25;;;12.30;99.90;;;;;;5081073;28;20024;-78
2022/06/14 05:07:31;;;;;;;8.98;3.53;;;12.50;99.90;;;;;;5094227;28;20035;-79
2022/06/14 05:10:04;;;;;;;5.35;3.28;;;12.60;99.90;;;;;;5094780;28;20027;-78
2022/06/14 05:12:30;;;;;;;7.60;3.22;;;12.70;99.90;;;;;;5094591;28;20414;-78
2022/06/14 05:15:02;;;;;;;5.65;3.22;;;12.80;99.90;;;;;;5093979;28;20027;-79
2022/06/14 05:17:37;;;;;;;7.18;3.60;;;12.90;99.90;;;;;;5094508;28;20020;-81
2022/06/14 05:20:12;;;;;;;6.68;3.72;;;12.90;99.90;;;;;;5094282;28;20377;-78
2022/06/14 05:22:55;;;;;;;5.30;3.05;;;13.00;99.90;;;;;;5094606;28;20028;-78
2022/06/14 05:25:21;;;;;;;12.45;3.97;;;13.10;99.90;;;;;;5096210;28;20016;-79
2022/06/14 05:27:58;;;;;;;6.57;3.35;;;13.10;99.90;;;;;;5094018;28;20055;-79
2022/06/14 05:30:46;;;;;;;5.93;3.28;;;13.20;99.90;;;;;;5094184;28;20016;-79
2022/06/14 05:33:21;;;;;;;11.70;4.18;;;13.20;99.90;;;;;;5094381;28;20031;-79
2022/06/14 05:36:19;;;;;;;5.45;3.38;;;13.30;99.90;;;;;;5093421;28;20476;-78
2022/06/14 05:39:05;;;;;;;7.82;3.33;;;13.40;99.90;;;;;;5094028;28;20496;-79
2022/06/14 05:41:32;;;;;;;5.22;2.72;;;13.40;99.90;;;;;;5093572;28;20169;-81
2022/06/14 05:44:10;;;;;;;6.13;2.83;;;13.50;99.90;;;;;;5094481;28;20424;-79
2022/06/14 05:46:44;;;;;;;5.50;3.28;;;13.60;99.90;;;;;;5093995;28;20024;-79
2022/06/14 05:49:16;;;;;;;5.47;2.60;;;13.60;99.90;;;;;;5093370;28;20063;-79
2022/06/14 05:51:48;;;;;;;8.00;2.45;;;13.70;99.90;;;;;;5094060;28;20088;-78
2022/06/14 05:54:20;;;;;;;7.85;3.10;;;13.80;99.90;;;;;;5094101;28;20026;-78
2022/06/14 05:56:52;;;;;;;3.72;2.70;;;13.80;99.90;;;;;;5093758;28;20109;-78
2022/06/14 05:59:43;;;;;;;5.53;2.45;;;14.00;99.90;;;;;;5097444;28;20020;-78
2022/06/14 06:02:15;;;;;;;3.70;2.30;;;14.00;99.90;;;;;;5093802;28;20411;-79
2022/06/14 06:04:50;;;;;;;3.13;2.10;;;14.10;99.90;;;;;;5093762;28;20031;-80
2022/06/14 06:07:22;;;;;;;3.75;2.13;;;14.10;99.90;;;;;;5093934;28;20042;-79
2022/06/14 06:09:53;;;;;;;5.50;2.90;;;14.20;99.90;;;;;;5096586;28;20031;-79
2022/06/14 06:12:29;;;;;;;7.55;2.35;;;14.20;99.90;;;;;;5095971;28;20059;-79
2022/06/14 06:15:18;;;;;;;4.97;2.80;;;14.30;99.90;;;;;;5098982;28;20584;-78
2022/06/14 06:17:57;;;;;;;4.93;2.30;;;14.40;99.90;;;;;;5093884;28;20024;-78
2022/06/14 06:20:45;;;;;;;3.33;1.95;;;14.40;99.90;;;;;;5093652;28;20035;-78
2022/06/14 06:23:34;;;;;;;5.07;2.30;;;14.50;99.90;;;;;;5093851;28;20035;-77
2022/06/14 06:26:00;;;;;;;4.80;2.65;;;14.50;99.90;;;;;;5092782;28;20039;-79
2022/06/14 06:28:29;;;;;;;4.00;2.30;;;14.60;99.90;;;;;;5093823;28;20387;-78
2022/06/14 06:31:07;;;;;;;5.25;3.13;;;14.70;99.90;;;;;;5092780;28;20031;-78
2022/06/14 06:33:37;;;;;;;4.75;2.70;;;14.80;99.90;;;;;;5093024;28;20434;-80
2022/06/14 06:36:18;;;;;;;7.13;3.03;;;14.80;99.90;;;;;;5093522;28;20024;-80
2022/06/14 06:39:18;;;;;;;8.25;2.85;;;14.90;99.90;;;;;;5092748;28;20676;-79
2022/06/14 06:41:54;;;;;;;4.15;2.60;;;14.90;99.90;;;;;;5054234;28;20415;-79
2022/06/14 06:44:28;;;;;;;4.38;2.25;;;15.00;99.90;;;;;;5093180;28;20101;-78
2022/06/14 06:47:08;;;;;;;4.88;2.35;;;15.00;99.90;;;;;;5092992;28;20046;-78
2022/06/14 06:50:01;;;;;;;3.92;1.60;;;15.20;99.90;;;;;;5092900;28;20035;-78
2022/06/14 06:52:52;;;;;;;5.32;1.98;;;15.20;99.90;;;;;;5092797;28;20036;-79
2022/06/14 06:55:31;;;;;;;4.78;2.15;;;15.10;99.90;;;;;;5081193;28;20103;-78
2022/06/14 06:57:59;;;;;;;2.47;1.95;;;15.20;99.90;;;;;;5092921;28;20028;-80
2022/06/14 07:00:27;;;;;;;6.20;2.20;;;15.20;99.90;;;;;;5092235;28;20035;-79
2022/06/14 07:03:04;;;;;;;4.28;2.25;;;15.30;99.90;;;;;;5092405;28;20044;-80
2022/06/14 07:05:30;;;;;;;4.65;1.70;;;15.30;99.90;;;;;;5092866;28;20107;-80
2022/06/14 07:08:03;;;;;;;5.57;1.88;;;15.40;99.90;;;;;;5092096;28;20059;-80
2022/06/14 07:10:32;;;;;;;3.35;1.80;;;15.40;99.90;;;;;;5092826;28;20213;-80
2022/06/14 07:13:01;;;;;;;2.35;1.63;;;15.50;99.90;;;;;;5092913;28;20024;-80
2022/06/14 07:15:26;;;;;;;3.90;2.20;;;15.50;99.90;;;;;;5096786;28;20024;-79
2022/06/14 07:18:19;;;;;;;3.05;1.67;;;15.60;99.90;;;;;;5096929;28;20042;-79
2022/06/14 07:21:09;;;;;;;3.50;1.55;;;15.60;99.90;;;;;;5096262;28;20032;-79
2022/06/14 07:23:50;;;;;;;5.47;1.63;;;15.60;99.90;;;;;;5096973;28;20078;-79
2022/06/14 07:26:22;;;;;;;2.67;1.40;;;15.70;99.90;;;;;;5096953;28;20089;-79
2022/06/14 07:28:51;;;;;;;3.92;1.58;;;15.70;99.90;;;;;;5096181;28;20028;-80
2022/06/14 07:31:55;;;;;;;3.97;1.65;;;15.70;99.90;;;;;;5096660;28;20027;-80
2022/06/14 07:34:22;;;;;;;3.58;1.40;;;15.80;99.90;;;;;;5096507;28;20024;-78
2022/06/14 07:37:14;;;;;;;6.43;2.42;;;15.80;99.90;;;;;;5096692;28;20032;-79
2022/06/14 07:39:51;;;;;;;3.53;1.58;;;15.80;99.90;;;;;;5096642;28;20062;-80
2022/06/14 07:42:23;;;;;;;2.80;1.90;;;15.90;99.90;;;;;;5096013;28;20040;-79
2022/06/14 07:44:52;;;;;;;3.15;2.00;;;16.00;99.90;;;;;;5096590;28;20028;-79
2022/06/14 07:47:48;;;;;;;7.97;2.00;;;16.00;99.90;;;;;;5096324;28;20024;-79
2022/06/14 07:50:22;;;;;;;5.25;2.28;;;16.10;99.90;;;;;;5048712;28;20042;-80
2022/06/14 07:52:50;;;;;;;5.05;1.90;;;16.20;99.90;;;;;;5096377;28;20554;-79
2022/06/14 07:55:40;;;;;;;6.82;2.65;;;16.30;99.90;;;;;;5095736;28;20407;-80
2022/06/14 07:58:12;;;;;;;4.07;2.03;;;16.40;99.90;;;;;;5077774;28;20476;-79
2022/06/14 08:03:34;;;;;;;2.40;1.60;;;16.40;99.90;;;;;;5096681;28;20077;-79
2022/06/14 08:06:03;;;;;;;3.63;1.80;;;16.50;99.90;;;;;;5099746;28;20039;-80
2022/06/14 08:08:38;;;;;;;2.20;1.87;;;16.50;99.90;;;;;;5096273;28;20047;-80
2022/06/14 08:11:09;;;;;;;5.07;1.73;;;16.50;99.90;;;;;;5095389;28;20073;-80
2022/06/14 08:13:43;;;;;;;4.05;1.40;;;16.50;99.90;;;;;;5097011;28;20027;-79
2022/06/14 08:16:10;;;;;;;6.72;1.88;;;16.60;99.90;;;;;;5100614;28;20024;-80
2022/06/14 08:18:47;;;;;;;4.97;1.55;;;16.70;99.90;;;;;;5097784;28;20091;-80
2022/06/14 08:21:16;;;;;;;3.88;1.63;;;16.70;99.90;;;;;;5101070;28;20040;-80
2022/06/14 08:23:58;;;;;;;2.45;1.83;;;16.70;99.90;;;;;;5095137;28;20028;-80
2022/06/14 08:26:37;;;;;;;2.60;1.70;;;16.90;99.90;;;;;;5094959;28;20392;-80
2022/06/14 08:29:13;;;;;;;2.10;1.35;;;17.00;99.90;;;;;;5095782;28;20044;-80
2022/06/14 08:31:39;;;;;;;4.05;1.80;;;17.00;99.90;;;;;;5094705;28;20024;-80
2022/06/14 08:34:15;;;;;;;4.40;2.05;;;17.10;99.90;;;;;;5095666;28;20020;-79
2022/06/14 08:36:55;;;;;;;3.40;1.83;;;17.20;99.90;;;;;;5095431;28;20484;-80
2022/06/14 08:39:32;;;;;;;6.30;2.08;;;17.20;99.90;;;;;;5094970;28;20024;-80
2022/06/14 08:42:09;;;;;;;2.53;1.60;;;17.20;99.90;;;;;;5095355;28;20035;-80
2022/06/14 08:44:42;;;;;;;4.25;2.00;;;17.20;99.90;;;;;;5095180;28;20024;-80
2022/06/14 08:47:32;;;;;;;11.68;2.78;;;17.10;99.90;;;;;;5095373;28;20069;-81
2022/06/14 08:50:18;;;;;;;5.38;1.77;;;17.20;99.90;;;;;;5095312;28;20395;-80
2022/06/14 08:53:02;;;;;;;3.08;1.63;;;17.10;99.90;;;;;;5094716;28;20024;-80
2022/06/14 08:55:53;;;;;;;5.32;1.98;;;17.00;99.90;;;;;;5095480;28;20024;-81
2022/06/14 08:58:32;;;;;;;1.83;1.30;;;17.00;99.90;;;;;;5094531;28;20544;-80
2022/06/14 09:01:09;;;;;;;2.03;1.50;;;17.00;99.90;;;;;;5094705;28;20441;-79
2022/06/14 09:04:25;;;;;;;2.35;1.20;;;17.10;99.90;;;;;;5094788;28;20264;-79
2022/06/14 09:07:24;;;;;;;3.13;1.58;;;17.20;99.90;;;;;;5051564;28;20464;-79
2022/06/14 09:10:11;;;;;;;4.45;1.60;;;17.20;99.90;;;;;;5095067;28;20023;-80
2022/06/14 09:12:54;;;;;;;3.50;2.35;;;17.20;99.90;;;;;;5094286;28;20020;-78
2022/06/14 09:15:26;;;;;;;3.72;2.13;;;17.30;99.90;;;;;;5094886;28;20028;-79
2022/06/14 09:18:08;;;;;;;2.65;1.80;;;17.40;99.90;;;;;;5094863;28;20031;-79
2022/06/14 09:20:55;;;;;;;3.55;1.73;;;17.70;99.90;;;;;;5094085;28;20020;-78
2022/06/14 09:23:49;;;;;;;3.42;1.60;;;17.90;99.90;;;;;;5094490;28;20505;-79
2022/06/14 09:26:23;;;;;;;5.05;2.33;;;18.20;99.90;;;;;;5094171;28;20024;-79
2022/06/14 09:29:04;;;;;;;2.85;1.70;;;18.30;99.60;;;;;;5094073;28;20372;-79
2022/06/14 09:32:03;;;;;;;3.20;2.03;;;18.50;99.20;;;;;;5094491;28;20028;-78
2022/06/14 09:34:55;;;;;;;9.93;2.10;;;18.70;98.90;;;;;;5093718;28;20034;-80
2022/06/14 09:37:55;;;;;;;3.83;1.63;;;18.80;98.40;;;;;;5093606;28;20472;-80
2022/06/14 09:40:30;;;;;;;3.47;1.70;;;19.00;98.20;;;;;;5087051;28;20464;-79
2022/06/14 09:43:25;;;;;;;4.70;1.67;;;19.20;98.10;;;;;;5094488;28;20057;-79
2022/06/14 09:46:06;;;;;;;2.40;1.65;;;19.20;97.80;;;;;;5094685;28;20020;-79
2022/06/14 09:49:11;;;;;;;2.67;1.58;;;19.40;97.50;;;;;;5093999;28;20086;-79
2022/06/14 09:51:54;;;;;;;4.10;2.08;;;19.60;97.50;;;;;;5094146;28;20024;-80
2022/06/14 09:54:41;;;;;;;3.22;2.50;;;19.80;97.00;;;;;;5093897;28;20019;-80
2022/06/14 09:57:40;;;;;;;4.60;2.28;;;20.00;96.50;;;;;;5093671;28;20101;-80
2022/06/14 10:00:37;;;;;;;3.42;1.67;;;20.00;95.60;;;;;;5111213;27;20132;-79
2022/06/14 10:03:40;;;;;;;2.37;1.90;;;19.90;95.80;;;;;;5110230;28;20024;-78
2022/06/14 10:06:31;;;;;;;2.60;2.03;;;20.00;95.70;;;;;;5108353;28;20028;-79
2022/06/14 10:09:14;;;;;;;3.60;2.30;;;20.20;95.00;;;;;;5114546;28;20023;-79
2022/06/14 10:11:52;;;;;;;6.38;2.45;;;20.40;94.70;;;;;;5114568;28;20368;-79
2022/06/14 10:14:55;;;;;;;2.22;1.80;;;20.50;94.20;;;;;;5113255;28;20020;-78
2022/06/14 10:17:23;;;;;;;3.22;1.70;;;20.60;94.50;;;;;;5110196;28;20027;-79
2022/06/14 10:20:17;;;;;;;4.95;2.45;;;20.80;94.30;;;;;;5111559;28;20040;-78
2022/06/14 10:23:06;;;;;;;2.67;1.90;;;21.00;93.80;;;;;;5111966;28;20024;-78
2022/06/14 10:29:26;;;;;;;5.18;2.50;;;21.00;93.60;;;;;;5110555;28;20032;-79
2022/06/14 10:32:17;;;;;;;3.58;2.15;;;21.00;93.20;;;;;;5109685;28;20061;-79
2022/06/14 10:34:55;;;;;;;5.30;2.75;;;20.90;93.30;;;;;;5110116;28;20028;-78
2022/06/14 10:37:54;;;;;;;9.48;3.17;;;20.90;92.90;;;;;;5109706;28;20440;-79
2022/06/14 10:40:49;;;;;;;5.78;2.65;;;20.70;93.00;;;;;;5110356;28;20036;-79
2022/06/14 10:43:18;;;;;;;3.70;2.50;;;20.40;93.30;;;;;;5110344;28;20039;-78
2022/06/14 10:45:49;;;;;;;3.80;2.17;;;20.10;93.50;;;;;;5109532;28;20106;-79
2022/06/14 10:48:33;;;;;;;7.00;2.70;;;20.00;93.70;;;;;;5110147;28;20098;-80
2022/06/14 10:51:04;;;;;;;4.50;2.10;;;19.90;93.90;;;;;;5109338;28;20451;-80
2022/06/14 10:54:08;;;;;;;4.45;2.17;;;19.90;93.80;;;;;;5109574;28;20034;-77
2022/06/14 10:56:59;;;;;;;2.28;1.92;;;20.00;94.20;;;;;;5105823;28;20034;-80
2022/06/14 10:59:34;;;;;;;9.18;3.38;;;20.00;94.30;;;;;;5108945;28;20142;-78
2022/06/14 11:02:08;;;;;;;5.63;2.60;;;20.00;94.00;;;;;;5109853;28;20043;-80
2022/06/14 11:04:43;;;;;;;4.20;2.45;;;20.00;93.50;;;;;;5109740;28;20024;-79
2022/06/14 11:07:25;;;;;;;4.10;2.15;;;19.80;93.70;;;;;;5109559;28;20059;-78
2022/06/14 11:10:19;;;;;;;7.30;2.10;;;19.80;93.80;;;;;;5105680;28;20020;-78
2022/06/14 11:13:05;;;;;;;3.92;2.03;;;19.70;94.10;;;;;;5095367;28;20031;-78
2022/06/14 11:15:57;;;;;;;2.65;2.20;;;19.70;94.10;;;;;;5096046;28;20047;-78
2022/06/14 11:18:34;;;;;;;4.18;2.33;;;19.60;94.50;;;;;;5064282;28;20051;-79
2022/06/14 11:21:21;;;;;;;4.13;2.55;;;19.60;94.90;;;;;;5095253;28;20020;-79
2022/06/14 11:24:06;;;;;;;3.25;2.28;;;19.70;94.90;;;;;;5095939;28;20073;-79
2022/06/14 11:26:46;;;;;;;3.80;2.13;;;19.80;94.60;;;;;;5095289;28;20024;-79
2022/06/14 11:29:30;;;;;;;3.38;2.10;;;19.90;94.40;;;;;;5095765;28;20540;-79
2022/06/14 11:32:20;;;;;;;3.45;1.83;;;20.00;93.20;;;;;;5095624;28;20554;-79
2022/06/14 11:35:10;;;;;;;3.58;1.77;;;20.30;93.10;;;;;;5094841;28;20028;-80
2022/06/14 11:38:03;;;;;;;5.63;2.03;;;20.60;92.90;;;;;;5095522;28;20028;-78
2022/06/14 11:40:31;;;;;;;4.13;2.20;;;21.00;92.60;;;;;;5095013;28;20107;-78
2022/06/14 11:43:21;;;;;;;4.05;2.25;;;21.40;92.30;;;;;;5095224;28;20441;-78
2022/06/14 11:46:01;;;;;;;;;;;21.60;91.20;;;;;;5095860;28;20024;-78
2022/06/14 11:48:45;;;;;;;5.63;2.40;;;21.80;91.00;;;;;;5094376;28;19904;-78
2022/06/14 11:51:24;;;;;;;4.70;2.00;;;22.10;90.80;;;;;;5095064;28;20166;-79
2022/06/14 11:54:21;;;;;;;3.03;1.77;;;22.30;90.20;;;;;;5094942;28;20107;-78
2022/06/14 11:56:53;;;;;;;3.30;2.00;;;22.60;89.00;;;;;;5093947;28;20326;-79
2022/06/14 11:59:50;;;;;;;3.10;2.70;;;22.70;89.30;;;;;;5094840;28;20048;-78
2022/06/14 12:02:22;;;;;;;2.97;2.10;;;22.60;87.30;;;;;;5094486;28;20106;-79
2022/06/14 12:05:09;;;;;;;3.65;2.22;;;22.50;87.50;;;;;;5094985;28;20020;-77
2022/06/14 12:07:47;;;;;;;3.75;2.28;;;22.60;86.30;;;;;;5095059;28;20026;-80
2022/06/14 12:10:39;;;;;;;3.75;2.33;;;22.70;87.90;;;;;;5094084;28;20024;-79
2022/06/14 12:13:14;;;;;;;3.42;2.08;;;22.60;85.90;;;;;;5095017;28;20070;-80
2022/06/14 12:15:39;;;;;;;2.63;2.25;;;22.50;88.90;;;;;;5094802;28;20020;-78
2022/06/14 12:18:08;;;;;;;4.28;2.00;;;22.30;88.10;;;;;;5095497;28;20081;-79
2022/06/14 12:20:56;;;;;;;5.20;2.92;;;22.20;88.80;;;;;;5094968;28;20062;-77
2022/06/14 12:23:37;;;;;;;3.63;2.33;;;22.20;90.20;;;;;;5093622;28;20077;-80
2022/06/14 12:26:37;;;;;;;3.47;2.17;;;22.30;88.70;;;;;;5096631;28;20507;-77
2022/06/14 12:29:38;;;;;;;;;;;22.50;88.50;;;;;;5096582;28;20025;-78
2022/06/14 12:32:26;;;;;;;2.88;2.33;;;22.50;88.00;;;;;;5037936;28;19905;-79
2022/06/14 12:34:58;;;;;;;3.38;1.77;;;22.40;86.60;;;;;;5090719;28;20040;-79
2022/06/14 12:37:45;;;;;;;3.33;1.73;;;22.40;88.10;;;;;;5094120;28;20024;-79
2022/06/14 12:40:24;;;;;;;5.18;2.60;;;22.50;86.70;;;;;;5095874;28;20051;-79
2022/06/14 12:43:17;;;;;;;3.45;1.90;;;22.40;86.10;;;;;;5095445;28;20020;-79
2022/06/14 12:45:55;;;;;;;2.47;2.05;;;22.30;85.30;;;;;;5093800;28;20020;-78
2022/06/14 12:48:30;;;;;;;2.65;2.17;;;22.20;85.70;;;;;;5094001;28;20077;-78
2022/06/14 12:51:31;;;;;;;2.50;1.52;;;22.30;86.50;;;;;;5093329;28;20035;-77
2022/06/14 12:53:56;;;;;;;3.42;1.85;;;22.60;85.30;;;;;;5093926;28;20411;-79
2022/06/14 12:56:29;;;;;;;2.63;1.70;;;22.90;84.60;;;;;;5093796;28;20020;-77
2022/06/14 12:59:16;;;;;;;4.00;1.73;;;23.20;84.00;;;;;;5093026;28;20056;-79
2022/06/14 13:01:57;;;;;;;3.58;1.67;;;23.50;83.10;;;;;;5093752;28;20035;-79
2022/06/14 13:04:59;;;;;;;4.50;1.95;;;23.60;80.90;;;;;;5093539;28;20024;-79
2022/06/14 13:07:53;;;;;;;4.43;1.50;;;23.80;79.80;;;;;;5094076;28;20034;-79
2022/06/14 13:10:31;;;;;;;2.28;1.63;;;24.00;80.90;;;;;;5093840;28;20024;-78
2022/06/14 13:13:23;;;;;;;4.63;1.83;;;24.30;80.40;;;;;;5092833;28;20024;-78
2022/06/14 13:15:58;;;;;;;9.32;2.97;;;24.60;80.40;;;;;;5051701;28;20060;-77
2022/06/14 13:18:32;;;;;;;3.60;1.85;;;24.70;80.50;;;;;;5093032;28;20024;-80
2022/06/14 13:21:30;;;;;;;2.08;1.70;;;25.10;79.80;;;;;;5093207;28;20024;-79
2022/06/14 13:24:11;;;;;;;4.65;2.03;;;25.40;78.00;;;;;;5093650;28;20081;-77
2022/06/14 13:26:58;;;;;;;4.22;1.83;;;25.80;77.10;;;;;;5092773;28;20051;-78
2022/06/14 13:30:19;;;;;;;3.03;2.35;;;25.90;75.80;;;;;;5093311;28;20016;-77
2022/06/14 13:33:12;;;;;;;2.10;1.70;;;25.60;73.10;;;;;;5010651;28;20038;-78
2022/06/14 13:35:47;;;;;;;2.60;1.70;;;25.30;75.00;;;;;;5093420;28;20024;-80
2022/06/14 13:38:27;;;;;;;2.28;1.83;;;25.20;74.90;;;;;;5093424;28;20036;-80
2022/06/14 13:41:18;;;;;;;3.17;1.40;;;25.30;74.80;;;;;;5092833;28;20101;-77
2022/06/14 13:44:10;;;;;;;2.10;1.52;;;25.70;74.20;;;;;;5093428;28;20036;-79
2022/06/14 13:46:51;;;;;;;3.13;1.42;;;25.90;73.00;;;;;;5092832;28;20107;-80
2022/06/14 13:49:21;;;;;;;3.13;1.55;;;26.30;74.40;;;;;;5093199;28;20102;-79
2022/06/14 13:52:07;;;;;;;2.63;1.88;;;26.50;72.60;;;;;;5093108;28;20383;-79
2022/06/14 13:54:43;;;;;;;2.13;1.50;;;26.70;73.50;;;;;;5092352;28;20020;-79
2022/06/14 13:57:29;;;;;;;1.75;1.60;;;26.70;74.10;;;;;;5093262;28;20027;-79
2022/06/14 14:00:02;;;;;;;5.18;1.75;;;26.90;72.50;;;;;;5092715;28;20130;-79
2022/06/14 14:03:05;;;;;;;2.72;2.03;;;27.00;73.30;;;;;;5092334;28;20531;-79
2022/06/14 14:05:40;;;;;;;3.65;2.10;;;27.00;72.80;;;;;;5092887;28;20046;-79